Time;durP1;ratioP1;P1;durP2;ratioP2;P2;SDS_P1;SDS_P2;PMS_P1;PMS_P2;Temp;Humidity;BMP_temperature;BMP_pressure;BME280_temperature;BME280_humidity;BME280_pressure;Samples;Min_cycle;Max_cycle;Signal;HPM_P1;HPM_P2
2022/03/31 00:00:36;;;;;;;3.57;2.70;;;;;;;4.20;71.79;100557.13;5003809;28;20182;-81
2022/03/31 00:03:05;;;;;;;5.03;2.87;;;;;;;4.18;71.39;100556.16;5071116;28;20182;-82
2022/03/31 00:05:31;;;;;;;3.33;2.63;;;;;;;4.14;71.38;100551.78;5053906;28;20252;-81
2022/03/31 00:08:07;;;;;;;3.17;2.40;;;;;;;4.14;71.45;100549.25;5054465;28;20240;-81
2022/03/31 00:11:02;;;;;;;4.33;2.87;;;;;;;4.16;72.22;100555.25;5037496;28;20221;-82
2022/03/31 00:13:37;;;;;;;4.50;2.60;;;;;;;4.14;72.04;100556.84;5036474;28;20567;-80
2022/03/31 00:16:28;;;;;;;4.10;2.90;;;;;;;4.17;72.55;100556.97;5036882;28;20601;-82
2022/03/31 00:19:08;;;;;;;4.00;2.60;;;;;;;4.16;72.84;100567.03;5053398;28;20210;-81
2022/03/31 00:21:45;;;;;;;4.30;3.00;;;;;;;4.11;72.92;100566.88;5068182;28;20647;-82
2022/03/31 00:24:13;;;;;;;4.87;3.17;;;;;;;4.12;72.87;100563.53;5052896;28;20228;-82
2022/03/31 00:26:45;;;;;;;4.10;2.83;;;;;;;4.06;73.97;100562.41;5052178;28;20225;-82
2022/03/31 00:29:13;;;;;;;4.53;3.47;;;;;;;4.06;73.52;100554.81;5052835;28;20259;-81
2022/03/31 00:31:39;;;;;;;5.23;3.27;;;;;;;4.07;74.19;100548.94;5051518;28;20196;-82
2022/03/31 00:34:05;;;;;;;4.93;3.07;;;;;;;4.03;75.61;100555.56;5041442;28;20185;-83
2022/03/31 00:36:38;;;;;;;4.63;3.80;;;;;;;4.00;76.46;100560.50;5055833;28;20731;-82
2022/03/31 00:42:15;;;;;;;6.60;3.83;;;;;;;3.84;78.17;100555.63;5054115;28;20205;-80
2022/03/31 00:44:44;;;;;;;5.00;3.40;;;;;;;3.82;78.07;100552.16;5036894;28;20663;-82
2022/03/31 00:47:25;;;;;;;4.23;3.83;;;;;;;3.78;78.42;100549.44;5053357;28;20193;-81
2022/03/31 00:49:57;;;;;;;6.53;3.87;;;;;;;3.75;78.69;100554.38;5053420;28;20939;-82
2022/03/31 00:52:46;;;;;;;4.30;3.40;;;;;;;3.72;79.28;100549.19;5035411;28;20655;-82
2022/03/31 00:55:15;;;;;;;6.90;3.83;;;;;;;3.77;78.56;100550.25;5050968;28;20223;-81
2022/03/31 00:57:46;;;;;;;5.40;4.00;;;;;;;3.73;79.36;100543.34;5052509;28;20244;-83
2022/03/31 01:00:14;;;;;;;5.30;3.87;;;;;;;3.73;79.22;100541.63;5052301;28;20594;-81
2022/03/31 01:02:47;;;;;;;7.70;4.23;;;;;;;3.67;78.96;100533.81;5052417;28;20166;-83
2022/03/31 01:05:14;;;;;;;7.30;4.10;;;;;;;3.64;79.40;100536.19;5052109;28;20210;-82
2022/03/31 01:07:40;;;;;;;5.27;3.80;;;;;;;3.67;78.68;100535.47;5035221;28;20205;-82
2022/03/31 01:10:07;;;;;;;5.60;4.27;;;;;;;3.64;79.63;100533.66;5052017;28;20190;-82
2022/03/31 01:12:34;;;;;;;5.77;4.20;;;;;;;3.61;79.27;100532.69;5052150;28;20186;-82
2022/03/31 01:15:07;;;;;;;5.33;3.50;;;;;;;3.66;79.02;100531.22;5035161;28;20201;-82
2022/03/31 01:17:34;;;;;;;7.77;4.03;;;;;;;3.59;78.93;100529.25;5035090;28;20217;-82
2022/03/31 01:20:00;;;;;;;6.57;4.17;;;;;;;3.59;79.22;100526.72;5051802;28;20178;-82
2022/03/31 01:22:29;;;;;;;7.67;4.27;;;;;;;3.60;79.24;100519.19;5051765;28;20217;-80
2022/03/31 01:24:54;;;;;;;5.00;4.10;;;;;;;3.57;79.89;100510.56;5051517;28;20588;-82
2022/03/31 01:27:20;;;;;;;7.97;4.10;;;;;;;3.54;80.35;100515.53;5055959;28;20257;-82
2022/03/31 01:29:45;;;;;;;5.03;4.23;;;;;;;3.54;80.08;100511.31;5056431;28;20226;-80
2022/03/31 01:32:11;;;;;;;5.27;4.50;;;;;;;3.50;80.77;100509.47;5054248;28;20186;-83
2022/03/31 01:34:37;;;;;;;6.63;5.20;;;;;;;3.47;81.25;100506.81;5052947;28;20554;-82
2022/03/31 01:37:04;;;;;;;5.23;4.73;;;;;;;3.42;81.59;100503.25;5036528;28;20189;-82
2022/03/31 01:39:29;;;;;;;7.33;4.60;;;;;;;3.43;81.15;100517.59;5036152;28;20225;-80
2022/03/31 01:41:54;;;;;;;7.00;5.00;;;;;;;3.45;80.90;100510.94;5052455;28;20205;-82
2022/03/31 01:44:20;;;;;;;8.17;5.00;;;;;;;3.44;81.14;100513.38;5068620;28;20190;-81
2022/03/31 01:46:56;;;;;;;7.53;4.60;;;;;;;3.41;80.92;100498.94;5068307;28;20221;-84
2022/03/31 01:49:25;;;;;;;6.40;5.20;;;;;;;3.45;80.42;100507.56;5036257;28;20212;-82
2022/03/31 01:51:56;;;;;;;7.30;4.87;;;;;;;3.36;80.67;100502.94;5035598;28;20273;-81
2022/03/31 01:54:22;;;;;;;6.30;5.27;;;;;;;3.37;81.50;100501.31;5050960;28;20563;-83
2022/03/31 01:57:07;;;;;;;5.90;4.80;;;;;;;3.32;81.50;100500.25;5051273;28;20280;-81
2022/03/31 01:59:37;;;;;;;7.03;5.90;;;;;;;3.35;81.55;100498.72;5051771;28;20206;-83
2022/03/31 02:02:04;;;;;;;8.03;5.77;;;;;;;3.30;82.13;100502.72;5052525;28;20189;-81
2022/03/31 02:04:30;;;;;;;7.47;5.70;;;;;;;3.28;82.28;100503.44;5051169;28;20559;-82
2022/03/31 02:06:56;;;;;;;9.23;5.63;;;;;;;3.26;82.29;100502.53;5050053;28;20263;-82
2022/03/31 02:09:21;;;;;;;8.53;6.00;;;;;;;3.21;82.27;100498.91;5050548;28;20210;-82
2022/03/31 02:11:47;;;;;;;9.30;5.90;;;;;;;3.13;82.31;100501.13;5067591;28;20680;-82
2022/03/31 02:14:13;;;;;;;7.70;5.77;;;;;;;3.16;82.56;100500.38;5050673;28;20192;-82
2022/03/31 02:16:39;;;;;;;7.70;5.43;;;;;;;3.16;81.91;100510.50;5035069;28;20740;-81
2022/03/31 02:19:04;;;;;;;7.60;6.53;;;;;;;3.15;82.30;100504.59;5055501;28;20208;-82
2022/03/31 02:21:30;;;;;;;9.60;6.43;;;;;;;3.10;82.36;100501.00;5055069;28;20195;-83
2022/03/31 02:23:55;;;;;;;6.73;5.70;;;;;;;3.12;82.48;100501.09;5035947;28;20638;-83
2022/03/31 02:26:20;;;;;;;7.53;6.20;;;;;;;3.10;82.31;100502.66;5034922;28;20228;-82
2022/03/31 02:28:46;;;;;;;7.03;5.80;;;;;;;3.11;82.27;100500.19;5038054;28;20712;-83
2022/03/31 02:31:11;;;;;;;7.87;6.03;;;;;;;3.05;82.43;100499.06;5038042;28;20185;-83
2022/03/31 02:33:38;;;;;;;7.13;5.93;;;;;;;3.01;82.89;100499.72;5038166;28;20186;-82
2022/03/31 02:36:05;;;;;;;8.40;6.33;;;;;;;2.98;82.71;100508.06;5054664;28;20551;-83
2022/03/31 02:38:30;;;;;;;7.90;6.27;;;;;;;2.87;83.75;100506.72;5053186;28;20209;-81
2022/03/31 02:40:56;;;;;;;10.60;6.90;;;;;;;2.88;83.98;100495.81;5053296;28;20208;-82
2022/03/31 02:43:21;;;;;;;9.47;6.83;;;;;;;2.85;84.09;100503.25;5053333;28;20185;-81
2022/03/31 02:45:47;;;;;;;11.07;6.43;;;;;;;2.81;84.06;100508.13;5036344;28;20237;-82
2022/03/31 02:48:12;;;;;;;9.27;6.63;;;;;;;2.82;84.40;100510.72;5053460;28;20791;-83
2022/03/31 02:50:38;;;;;;;8.63;6.77;;;;;;;2.83;83.94;100506.50;5053862;28;20218;-83
2022/03/31 02:55:47;;;;;;;7.67;6.50;;;;;;;2.78;84.37;100500.38;5053093;28;20639;-82
2022/03/31 02:58:13;;;;;;;8.37;6.53;;;;;;;2.75;85.05;100502.81;5052114;28;20205;-81
2022/03/31 03:00:38;;;;;;;9.77;6.97;;;;;;;2.75;85.18;100507.84;5052169;28;20217;-82
2022/03/31 03:03:04;;;;;;;8.40;6.53;;;;;;;2.74;85.38;100506.97;5053042;28;20192;-82
2022/03/31 03:05:31;;;;;;;10.20;7.03;;;;;;;2.62;85.59;100503.88;5053988;28;20206;-82
2022/03/31 03:07:56;;;;;;;9.77;7.53;;;;;;;2.61;85.95;100503.81;5052188;28;20215;-81
2022/03/31 03:10:22;;;;;;;8.03;6.83;;;;;;;2.58;86.20;100512.13;5053305;28;20630;-82
2022/03/31 03:12:49;;;;;;;9.27;7.33;;;;;;;2.51;86.01;100510.13;5060755;28;20193;-80
2022/03/31 03:15:16;;;;;;;9.57;7.20;;;;;;;2.45;87.08;100504.81;5053595;28;20185;-84
2022/03/31 03:17:46;;;;;;;9.50;7.30;;;;;;;2.47;86.33;100510.78;5052303;28;20212;-82
2022/03/31 03:20:13;;;;;;;10.17;7.13;;;;;;;2.46;86.83;100503.13;5035076;28;20197;-80
2022/03/31 03:22:45;;;;;;;9.97;7.50;;;;;;;2.44;86.84;100498.00;5052257;28;20186;-81
2022/03/31 03:25:11;;;;;;;9.77;7.57;;;;;;;2.35;86.65;100497.59;5034607;28;20213;-82
2022/03/31 03:27:40;;;;;;;9.70;6.87;;;;;;;2.29;87.21;100499.84;5052167;28;20201;-82
2022/03/31 03:30:12;;;;;;;11.00;7.60;;;;;;;2.31;87.96;100502.44;5051250;28;20190;-82
2022/03/31 03:32:45;;;;;;;9.10;7.23;;;;;;;2.34;87.36;100503.44;5052230;28;20170;-82
2022/03/31 03:35:12;;;;;;;10.23;7.53;;;;;;;2.21;88.03;100497.75;5051610;28;20212;-81
2022/03/31 03:37:44;;;;;;;9.30;7.17;;;;;;;2.16;88.82;100502.59;5051180;28;20228;-83
2022/03/31 03:40:22;;;;;;;12.57;8.47;;;;;;;2.17;88.17;100503.47;5034330;28;20701;-80
2022/03/31 03:43:03;;;;;;;8.93;7.83;;;;;;;2.14;89.11;100499.13;5050874;28;20186;-82
2022/03/31 03:45:36;;;;;;;12.70;8.07;;;;;;;2.11;88.55;100509.09;5050930;28;20579;-82
2022/03/31 03:48:12;;;;;;;9.30;8.07;;;;;;;2.08;89.05;100503.91;5035258;28;20240;-79
2022/03/31 03:50:47;;;;;;;12.97;9.03;;;;;;;2.04;89.29;100507.06;5033810;28;20194;-82
2022/03/31 03:54:19;;;;;;;;;;;;;;;;;;;;;
2022/03/31 03:56:49;;;;;;;15.87;9.67;;;;;;;1.90;89.49;100498.00;4954512;28;20646;-81
2022/03/31 03:59:14;;;;;;;12.73;10.97;;;;;;;1.88;90.00;100496.19;5051451;28;20280;-83
2022/03/31 04:01:46;;;;;;;14.30;12.83;;;;;;;1.84;90.53;100496.84;5050663;28;20197;-83
2022/03/31 04:04:12;;;;;;;17.93;15.63;;;;;;;1.85;90.28;100499.44;5037723;28;20186;-83
2022/03/31 04:06:37;;;;;;;20.17;15.90;;;;;;;1.79;90.08;100495.75;5037391;28;20602;-83
2022/03/31 04:09:14;;;;;;;20.83;18.00;;;;;;;1.81;90.34;100492.50;5039073;28;20247;-83
2022/03/31 04:11:44;;;;;;;15.43;13.20;;;;;;;1.76;90.62;100493.94;5055425;28;20189;-82
2022/03/31 04:14:09;;;;;;;15.50;11.57;;;;;;;1.77;90.82;100484.69;5054824;28;20190;-83
2022/03/31 04:16:45;;;;;;;15.20;11.27;;;;;;;1.73;90.21;100492.91;5050753;28;20174;-81
2022/03/31 04:19:23;;;;;;;12.97;9.87;;;;;;;1.71;90.79;100487.81;5034517;28;20694;-83
2022/03/31 04:22:18;;;;;;;13.63;9.03;;;;;;;1.69;91.16;100489.38;5019436;28;20166;-82
2022/03/31 04:24:53;;;;;;;11.27;9.13;;;;;;;1.67;91.22;100490.97;5034807;28;20174;-82
2022/03/31 04:27:19;;;;;;;12.03;8.87;;;;;;;1.67;91.10;100497.66;5016792;28;20179;-81
2022/03/31 04:29:45;;;;;;;11.07;9.10;;;;;;;1.68;90.56;100494.34;5016772;28;20256;-83
2022/03/31 04:32:17;;;;;;;9.77;8.50;;;;;;;1.63;91.06;100506.75;5021490;28;20195;-81
2022/03/31 04:34:45;;;;;;;10.63;9.03;;;;;;;1.57;91.58;100500.53;5034241;28;20719;-83
2022/03/31 04:37:21;;;;;;;10.50;8.97;;;;;;;1.57;91.47;100498.91;5034437;28;20243;-83
2022/03/31 04:39:47;;;;;;;9.23;8.27;;;;;;;1.61;91.11;100500.75;5015566;28;20255;-83
2022/03/31 04:42:14;;;;;;;11.70;9.00;;;;;;;1.58;91.40;100510.72;5007787;28;20202;-83
2022/03/31 04:45:01;;;;;;;9.03;7.93;;;;;;;1.60;91.29;100513.31;5016506;28;20647;-83
2022/03/31 04:47:44;;;;;;;10.50;8.43;;;;;;;1.57;91.58;100510.63;5016673;28;20189;-83
2022/03/31 04:50:12;;;;;;;11.27;8.53;;;;;;;1.58;91.05;100512.34;5015821;28;20200;-83
2022/03/31 04:53:11;;;;;;;12.33;8.37;;;;;;;1.51;90.57;100511.19;5016637;28;20551;-83
2022/03/31 04:56:07;;;;;;;11.87;8.33;;;;;;;1.55;91.76;100517.22;5026934;28;20209;-82
2022/03/31 04:58:33;;;;;;;10.67;8.03;;;;;;;1.55;90.74;100520.63;5020255;28;20683;-81
2022/03/31 05:00:58;;;;;;;9.40;8.37;;;;;;;1.52;90.23;100512.06;5035943;28;20194;-81
2022/03/31 05:03:26;;;;;;;11.90;7.67;;;;;;;1.54;91.26;100516.38;5017042;28;20189;-83
2022/03/31 05:05:54;;;;;;;10.03;8.00;;;;;;;1.52;91.14;100520.47;5016897;28;20263;-81
2022/03/31 05:08:19;;;;;;;10.67;7.70;;;;;;;1.51;90.88;100523.78;5000760;28;20206;-81
2022/03/31 05:10:45;;;;;;;9.77;7.30;;;;;;;1.52;91.16;100514.59;5016935;28;20548;-81
2022/03/31 05:13:11;;;;;;;12.10;6.97;;;;;;;1.54;90.86;100526.47;5016550;28;20266;-79
2022/03/31 05:15:37;;;;;;;10.53;7.00;;;;;;;1.54;90.97;100521.44;4999917;28;20190;-83
2022/03/31 05:18:10;;;;;;;9.53;6.53;;;;;;;1.49;90.95;100522.00;4999274;28;20210;-82
2022/03/31 05:20:35;;;;;;;8.90;6.40;;;;;;;1.48;90.64;100521.16;5015606;28;20269;-83
2022/03/31 05:23:00;;;;;;;10.40;6.90;;;;;;;1.41;90.15;100521.63;5015700;28;20293;-83
2022/03/31 05:25:26;;;;;;;13.33;6.73;;;;;;;1.47;90.05;100524.44;4998638;28;20808;-82
2022/03/31 05:27:52;;;;;;;8.97;6.83;;;;;;;1.43;90.45;100525.09;4999133;28;20687;-82
2022/03/31 05:30:49;;;;;;;9.27;6.67;;;;;;;1.46;90.22;100526.91;4998761;28;20639;-82
2022/03/31 05:33:29;;;;;;;8.10;6.37;;;;;;;1.45;91.21;100523.50;5015284;28;20206;-82
2022/03/31 05:36:02;;;;;;;12.10;7.83;;;;;;;1.43;90.42;100525.09;5015571;28;20224;-83
2022/03/31 05:38:31;;;;;;;8.00;5.67;;;;;;;1.38;90.65;100528.16;4998395;28;20226;-81
2022/03/31 05:41:02;;;;;;;7.23;5.60;;;;;;;1.45;90.33;100530.19;5014519;28;20221;-80
2022/03/31 05:43:37;;;;;;;8.67;5.80;;;;;;;1.48;90.24;100527.81;5012584;28;20292;-83
2022/03/31 05:46:03;;;;;;;9.17;6.30;;;;;;;1.48;89.84;100532.88;5014809;28;20225;-81
2022/03/31 05:48:31;;;;;;;8.73;6.13;;;;;;;1.44;90.08;100533.50;4998221;28;20525;-83
2022/03/31 05:50:59;;;;;;;9.00;6.70;;;;;;;1.53;89.82;100544.06;5014585;28;20237;-82
2022/03/31 05:53:24;;;;;;;8.53;6.40;;;;;;;1.55;90.04;100537.41;5014744;28;20205;-81
2022/03/31 05:56:03;;;;;;;7.93;5.73;;;;;;;1.51;89.35;100543.13;5013921;28;20182;-82
2022/03/31 05:58:31;;;;;;;7.73;5.87;;;;;;;1.54;90.35;100541.63;5014599;28;20210;-82
2022/03/31 06:01:04;;;;;;;6.33;5.17;;;;;;;1.51;89.95;100549.00;5015431;28;20260;-82
2022/03/31 06:03:33;;;;;;;7.70;5.93;;;;;;;1.55;89.43;100553.44;5013971;28;20199;-82
2022/03/31 06:06:04;;;;;;;8.37;5.87;;;;;;;1.54;88.83;100554.22;5014138;28;20214;-81
2022/03/31 06:08:30;;;;;;;11.07;6.30;;;;;;;1.46;88.55;100558.00;5014541;28;20310;-83
2022/03/31 06:10:56;;;;;;;10.83;6.00;;;;;;;1.46;88.75;100558.00;5014531;28;20272;-82
2022/03/31 06:13:36;;;;;;;10.10;5.97;;;;;;;1.51;88.93;100559.09;4999968;28;20201;-80
2022/03/31 06:16:03;;;;;;;7.53;5.60;;;;;;;1.46;89.38;100557.16;5013966;28;20549;-81
2022/03/31 06:18:31;;;;;;;6.87;5.77;;;;;;;1.40;89.40;100559.34;4997771;28;20778;-81
2022/03/31 06:20:57;;;;;;;7.63;6.00;;;;;;;1.47;88.64;100566.47;5013985;28;20178;-80
2022/03/31 06:23:23;;;;;;;8.90;5.50;;;;;;;1.52;88.26;100568.41;4997709;28;20217;-82
2022/03/31 06:25:52;;;;;;;8.63;6.23;;;;;;;1.44;88.57;100571.34;5013924;28;20222;-83
2022/03/31 06:28:48;;;;;;;7.63;5.90;;;;;;;1.46;89.53;100577.34;5013180;28;20642;-80
2022/03/31 06:31:21;;;;;;;7.00;5.67;;;;;;;1.46;89.28;100568.09;4998665;28;20583;-81
2022/03/31 06:38:10;;;;;;;9.87;6.57;;;;;;;1.44;88.77;100581.44;4950862;29;20248;-81
2022/03/31 06:41:10;;;;;;;7.63;6.33;;;;;;;1.37;88.74;100586.97;4975276;28;20226;-82
2022/03/31 06:43:45;;;;;;;8.83;6.53;;;;;;;1.40;88.90;100593.03;5013937;28;20236;-83
2022/03/31 06:46:14;;;;;;;9.80;6.73;;;;;;;1.49;88.96;100605.22;5031185;28;20190;-82
2022/03/31 06:48:46;;;;;;;13.43;6.77;;;;;;;1.46;89.36;100595.84;5013546;28;20285;-80
2022/03/31 06:51:16;;;;;;;8.10;6.27;;;;;;;1.45;89.30;100603.31;5014075;28;20685;-82
2022/03/31 06:53:53;;;;;;;7.73;6.00;;;;;;;1.46;88.87;100605.94;5021710;28;20235;-83
2022/03/31 06:56:36;;;;;;;8.87;5.63;;;;;;;1.38;88.76;100592.06;5017781;28;20200;-81
2022/03/31 07:02:41;;;;;;;8.50;6.43;;;;;;;1.41;89.05;100607.34;4960563;28;20204;-80
2022/03/31 07:06:23;;;;;;;9.20;5.90;;;;;;;1.43;88.40;100610.84;5013380;28;20722;-83
2022/03/31 07:08:50;;;;;;;9.17;5.63;;;;;;;1.44;89.04;100607.53;5025591;28;20313;-81
2022/03/31 07:11:23;;;;;;;7.00;5.77;;;;;;;1.34;88.84;100605.31;5029755;28;20238;-82
2022/03/31 07:13:49;;;;;;;7.13;5.50;;;;;;;1.43;89.45;100615.00;5029970;28;20212;-80
2022/03/31 07:16:31;;;;;;;;;;;;;;;;;;;;;
2022/03/31 07:19:17;;;;;;;7.80;5.43;;;;;;;1.54;88.75;100614.75;5031536;28;20225;-80
2022/03/31 07:21:45;;;;;;;6.67;5.10;;;;;;;1.61;88.95;100615.94;5029954;28;20194;-81
2022/03/31 07:24:13;;;;;;;8.80;5.50;;;;;;;1.64;87.81;100621.13;5030066;28;20185;-83
2022/03/31 07:26:43;;;;;;;9.87;5.57;;;;;;;1.66;87.69;100612.84;5013000;28;20313;-82
2022/03/31 07:29:18;;;;;;;6.77;5.40;;;;;;;1.70;87.24;100619.78;5029595;28;20289;-84
2022/03/31 07:31:46;;;;;;;6.00;4.80;;;;;;;1.74;87.05;100610.72;5029795;28;20689;-81
2022/03/31 07:34:22;;;;;;;6.27;4.57;;;;;;;1.68;87.17;100616.31;5029819;28;20603;-83
2022/03/31 07:36:47;;;;;;;7.27;4.97;;;;;;;1.80;86.77;100616.94;5029704;28;20179;-82
2022/03/31 07:39:13;;;;;;;10.13;4.57;;;;;;;1.87;86.35;100616.44;5013265;28;20285;-83
2022/03/31 07:41:41;;;;;;;5.30;4.20;;;;;;;1.86;86.07;100613.84;5032767;28;20205;-81
2022/03/31 07:44:15;;;;;;;7.10;3.60;;;;;;;1.88;85.59;100610.59;5016958;28;20190;-82
2022/03/31 07:46:54;;;;;;;7.30;4.60;;;;;;;1.93;85.46;100605.81;5032756;28;20257;-82
2022/03/31 07:49:37;;;;;;;6.43;4.43;;;;;;;2.02;84.60;100608.78;5032846;28;20676;-81
2022/03/31 07:52:03;;;;;;;7.53;4.87;;;;;;;2.19;84.32;100610.44;5016704;28;20204;-81
2022/03/31 07:54:37;;;;;;;6.10;4.80;;;;;;;2.19;84.54;100621.41;5036400;28;20193;-81
2022/03/31 07:57:03;;;;;;;4.70;4.10;;;;;;;2.27;84.12;100611.69;5019834;28;20197;-81
2022/03/31 07:59:33;;;;;;;6.50;4.33;;;;;;;2.32;82.32;100623.75;5036849;28;20209;-80
2022/03/31 08:02:02;;;;;;;6.80;4.07;;;;;;;2.40;82.68;100614.00;5053219;28;20177;-80
2022/03/31 08:04:27;;;;;;;8.10;4.67;;;;;;;2.56;82.23;100618.97;5036834;28;20224;-80
2022/03/31 08:06:53;;;;;;;8.23;4.50;;;;;;;2.59;81.62;100619.13;5036057;28;20334;-82
2022/03/31 08:09:21;;;;;;;6.33;4.50;;;;;;;2.69;80.78;100619.63;5036465;28;20228;-82
2022/03/31 08:11:49;;;;;;;5.77;4.50;;;;;;;2.89;79.88;100611.28;5036475;28;20204;-81
2022/03/31 08:14:16;;;;;;;5.83;4.17;;;;;;;3.01;80.76;100616.03;5036349;28;20404;-82
2022/03/31 08:16:46;;;;;;;5.70;3.90;;;;;;;3.08;79.09;100623.97;5028650;28;20186;-81
2022/03/31 08:19:12;;;;;;;5.87;4.10;;;;;;;3.29;78.58;100612.28;5006112;28;20256;-80
2022/03/31 08:21:42;;;;;;;7.63;3.70;;;;;;;3.39;78.04;100619.47;5036456;28;20205;-81
2022/03/31 08:24:13;;;;;;;6.27;4.47;;;;;;;3.60;77.88;100617.00;5032623;28;20187;-81
2022/03/31 08:26:40;;;;;;;5.73;4.07;;;;;;;3.73;77.71;100621.81;5043650;28;20214;-82
2022/03/31 08:29:07;;;;;;;6.83;3.70;;;;;;;3.95;77.56;100617.69;5029173;28;20216;-82
2022/03/31 08:31:33;;;;;;;5.33;3.60;;;;;;;3.91;76.01;100615.00;5050956;28;20201;-80
2022/03/31 08:33:58;;;;;;;7.00;4.23;;;;;;;4.10;76.10;100614.94;5033363;28;20193;-79
2022/03/31 08:36:24;;;;;;;5.93;3.70;;;;;;;3.92;74.78;100621.78;5006715;28;20273;-78
2022/03/31 08:38:52;;;;;;;5.30;3.80;;;;;;;3.85;74.85;100623.19;5016496;28;20206;-78
2022/03/31 08:41:22;;;;;;;6.53;4.30;;;;;;;3.88;75.05;100619.91;5043302;28;20186;-78
2022/03/31 08:43:48;;;;;;;6.07;3.87;;;;;;;3.62;73.72;100617.94;5000208;28;20189;-78
2022/03/31 08:46:15;;;;;;;5.63;3.77;;;;;;;3.74;73.20;100618.47;5016798;28;20289;-79
2022/03/31 08:48:51;;;;;;;5.43;3.53;;;;;;;3.84;73.03;100623.09;5018103;28;20197;-80
2022/03/31 08:51:23;;;;;;;7.73;4.07;;;;;;;3.85;72.39;100617.25;5016162;28;20186;-80
2022/03/31 08:53:54;;;;;;;9.03;4.00;;;;;;;4.32;72.61;100620.06;5016001;28;20245;-80
2022/03/31 08:56:19;;;;;;;4.37;3.53;;;;;;;4.29;71.68;100623.34;5033216;28;20167;-79
2022/03/31 08:58:46;;;;;;;4.70;3.53;;;;;;;4.44;70.67;100625.63;5016370;28;20194;-79
2022/03/31 09:01:13;;;;;;;5.77;3.67;;;;;;;4.71;70.24;100622.50;5016777;28;20201;-77
2022/03/31 09:03:39;;;;;;;7.43;4.27;;;;;;;5.28;67.62;100618.72;5016725;28;20568;-80
2022/03/31 09:06:07;;;;;;;6.40;4.47;;;;;;;5.85;67.26;100621.69;5016686;28;20228;-79
2022/03/31 09:08:38;;;;;;;4.50;3.50;;;;;;;5.98;66.06;100621.28;5016745;28;20210;-80
2022/03/31 09:11:04;;;;;;;5.97;3.60;;;;;;;6.07;65.45;100615.66;5033423;28;20243;-78
2022/03/31 09:14:02;;;;;;;9.13;4.70;;;;;;;6.34;63.60;100626.72;5029901;28;20573;-80
2022/03/31 09:16:54;;;;;;;6.67;3.27;;;;;;;6.47;60.44;100616.13;5052980;28;20186;-80
2022/03/31 09:19:27;;;;;;;3.87;2.87;;;;;;;7.06;60.05;100618.84;5028517;28;20302;-81
2022/03/31 09:22:01;;;;;;;6.03;3.70;;;;;;;7.63;59.65;100617.91;5050654;28;20305;-80
2022/03/31 09:24:37;;;;;;;6.83;3.50;;;;;;;7.68;56.63;100606.16;5053289;28;20902;-80
2022/03/31 09:27:06;;;;;;;3.87;3.30;;;;;;;8.01;56.21;100617.28;5026744;28;20583;-81
2022/03/31 09:29:41;;;;;;;5.80;3.33;;;;;;;7.86;54.52;100621.94;5016233;28;20627;-80
2022/03/31 09:32:21;;;;;;;3.93;3.13;;;;;;;8.15;55.56;100615.94;5000889;28;20271;-79
2022/03/31 09:34:53;;;;;;;4.37;3.00;;;;;;;8.23;53.21;100614.44;5015865;28;20174;-81
2022/03/31 09:37:38;;;;;;;3.40;2.90;;;;;;;8.80;53.54;100613.28;5015895;28;20198;-80
2022/03/31 09:40:28;;;;;;;4.47;2.97;;;;;;;9.64;51.19;100609.97;5015981;28;20259;-80
2022/03/31 09:43:28;;;;;;;4.20;3.50;;;;;;;10.19;49.22;100605.03;4999794;28;20213;-81
2022/03/31 09:46:04;;;;;;;4.40;3.23;;;;;;;9.90;47.90;100598.53;5012593;28;20214;-80
2022/03/31 09:51:32;;;;;;;5.60;3.13;;;;;;;9.70;47.10;100604.94;5051921;28;20182;-79
2022/03/31 09:54:50;;;;;;;3.33;2.93;;;;;;;9.96;45.48;100606.31;5034965;28;20193;-80
2022/03/31 09:57:24;;;;;;;3.70;2.87;;;;;;;10.97;44.78;100601.97;5034488;28;20197;-79
2022/03/31 10:00:16;;;;;;;4.03;2.67;;;;;;;12.10;41.49;100601.63;5051788;28;20191;-82
2022/03/31 10:02:59;;;;;;;4.50;2.83;;;;;;;11.59;40.85;100607.88;5052169;28;20697;-81
2022/03/31 10:05:34;;;;;;;8.57;3.07;;;;;;;11.25;41.84;100603.22;5034942;28;20221;-80
2022/03/31 10:08:32;;;;;;;5.73;2.73;;;;;;;11.09;41.41;100607.28;5051969;28;20245;-80
2022/03/31 10:11:23;;;;;;;;;;;;;;;;;;;;;
2022/03/31 10:14:27;;;;;;;3.57;2.23;;;;;;;9.88;43.65;100613.84;4947408;29;20681;-79
2022/03/31 10:20:21;;;;;;;4.20;2.50;;;;;;;9.02;45.32;100612.91;4982119;28;20364;-79
2022/03/31 10:26:10;;;;;;;3.27;2.57;;;;;;;9.85;44.63;100618.88;5041102;28;20273;-80
2022/03/31 10:29:09;;;;;;;4.97;3.13;;;;;;;10.19;46.05;100605.03;5036134;28;20218;-80
2022/03/31 10:32:22;;;;;;;3.53;2.60;;;;;;;9.61;44.68;100603.09;5032458;28;20276;-79
2022/03/31 10:35:06;;;;;;;4.10;2.40;;;;;;;9.59;45.32;100602.19;5008435;28;20521;-79
2022/03/31 10:37:53;;;;;;;;;;;;;;;;;;;;;
2022/03/31 10:40:42;;;;;;;3.07;2.30;;;;;;;9.15;42.80;100604.69;5069153;28;20265;-82
2022/03/31 10:43:31;;;;;;;3.50;2.00;;;;;;;9.28;43.86;100605.00;5001223;28;20195;-80
2022/03/31 10:46:04;;;;;;;5.17;3.07;;;;;;;9.76;43.92;100605.94;4999704;28;20230;-80
2022/03/31 10:52:32;;;;;;;4.27;2.73;;;;;;;9.87;45.49;100612.09;5034579;28;20264;-81
2022/03/31 10:55:19;;;;;;;;;;;;;;;;;;;;;
2022/03/31 10:57:54;;;;;;;3.20;2.33;;;;;;;9.39;42.02;100598.38;5036347;28;20304;-80
2022/03/31 11:00:23;;;;;;;5.07;2.50;;;;;;;9.64;43.70;100603.13;5018913;28;20274;-82
2022/03/31 11:02:57;;;;;;;2.90;2.50;;;;;;;9.94;42.15;100601.16;5035922;28;20225;-81
2022/03/31 11:05:52;;;;;;;2.63;2.00;;;;;;;9.20;42.17;100600.53;5037174;28;20247;-80
2022/03/31 11:08:41;;;;;;;3.37;2.33;;;;;;;9.48;42.62;100598.56;5035159;28;20213;-80
2022/03/31 11:11:30;;;;;;;4.50;2.50;;;;;;;9.56;41.20;100599.59;5038437;28;20197;-81
2022/03/31 11:14:21;;;;;;;3.30;2.27;;;;;;;8.98;43.37;100590.72;5021930;28;20201;-81
2022/03/31 11:17:14;;;;;;;2.37;1.97;;;;;;;9.31;42.32;100593.97;5041960;28;20185;-81
2022/03/31 11:20:06;;;;;;;2.73;1.83;;;;;;;9.41;41.68;100583.97;5041762;28;20200;-81
2022/03/31 11:23:10;;;;;;;2.37;1.80;;;;;;;9.40;41.90;100583.94;5021175;28;20741;-81
2022/03/31 11:25:45;;;;;;;5.50;2.37;;;;;;;9.65;40.53;100589.53;5011230;28;20228;-81
2022/03/31 11:28:28;;;;;;;3.43;2.13;;;;;;;9.50;40.38;100591.78;5024291;28;20202;-81
2022/03/31 11:30:56;;;;;;;2.77;1.97;;;;;;;9.56;39.91;100589.38;5022889;28;20196;-84
2022/03/31 11:34:00;;;;;;;3.07;2.20;;;;;;;9.40;40.26;100586.50;5042295;28;20256;-81
2022/03/31 11:36:54;;;;;;;3.23;2.20;;;;;;;9.59;40.10;100593.66;5015440;28;20284;-82
2022/03/31 11:39:30;;;;;;;3.80;2.20;;;;;;;9.14;40.04;100588.50;5023662;28;20220;-80
2022/03/31 11:46:21;;;;;;;3.03;2.20;;;;;;;9.87;38.47;100583.13;5057798;28;20232;-82
2022/03/31 11:52:35;;;;;;;3.77;1.90;;;;;;;9.51;36.31;100582.44;5056731;28;20220;-80
2022/03/31 11:55:12;;;;;;;2.40;1.73;;;;;;;9.82;37.28;100575.34;5022844;28;20287;-80
2022/03/31 11:57:59;;;;;;;5.17;2.03;;;;;;;9.56;36.29;100568.91;5023938;28;20689;-80
2022/03/31 12:00:31;;;;;;;4.80;2.07;;;;;;;10.06;37.45;100570.72;5039927;28;20221;-81
2022/03/31 12:03:11;;;;;;;4.03;1.80;;;;;;;10.08;35.18;100573.28;5038873;28;20198;-82
2022/03/31 12:06:18;;;;;;;3.83;2.00;;;;;;;10.01;34.57;100576.53;5042618;28;20232;-80
2022/03/31 12:08:50;;;;;;;3.63;1.80;;;;;;;9.42;35.38;100575.47;5027614;28;20310;-80
2022/03/31 12:11:19;;;;;;;6.80;1.90;;;;;;;9.38;34.28;100573.69;5051485;28;20268;-81
2022/03/31 12:13:54;;;;;;;2.93;2.00;;;;;;;9.34;34.42;100577.00;5036567;28;20224;-81
2022/03/31 12:16:24;;;;;;;2.33;1.90;;;;;;;9.68;37.37;100566.56;5058543;28;20392;-81
2022/03/31 12:18:57;;;;;;;2.50;1.57;;;;;;;9.50;34.20;100571.34;5041763;28;20231;-82
2022/03/31 12:21:28;;;;;;;4.80;1.80;;;;;;;9.74;35.23;100570.94;5040211;28;20204;-81
2022/03/31 12:24:03;;;;;;;2.57;1.87;;;;;;;9.84;34.89;100573.69;5041266;28;20193;-80
2022/03/31 12:26:29;;;;;;;2.27;1.83;;;;;;;9.89;34.18;100572.09;5053019;28;20212;-82
2022/03/31 12:28:56;;;;;;;3.20;1.87;;;;;;;9.82;34.08;100575.34;5051728;28;20219;-83
2022/03/31 12:31:29;;;;;;;1.70;1.50;;;;;;;9.75;33.27;100575.22;5028111;28;20190;-80
2022/03/31 12:33:57;;;;;;;4.57;1.40;;;;;;;9.58;32.21;100582.56;5021025;28;20193;-79
2022/03/31 12:36:32;;;;;;;2.30;1.20;;;;;;;9.12;32.64;100564.63;5040975;28;20178;-80
2022/03/31 12:39:12;;;;;;;3.97;1.60;;;;;;;9.04;33.78;100571.25;5038389;28;20255;-80
2022/03/31 12:41:42;;;;;;;2.87;1.70;;;;;;;9.04;32.53;100555.09;5038232;28;20201;-80
2022/03/31 12:44:16;;;;;;;3.23;1.47;;;;;;;9.25;33.43;100569.16;5025626;28;20189;-80